Aérodrome :
LOGIN :

S'inscrire | Disclaimer

   EN    FR    IT 

 










Légende :    VFR   VFR Marginal   IFR   IFR Intensif   IFR Très Intensif
Visi : 
Plafond : 
>= 8 km
>= 3000ft
5 à 8 km
1000 à 3000 ft
1500m à 5 km
500 à 1000 ft
800 à 1500m
200 à 500 ft
< 800m
< 200 ft
Symboles :   Orages  Brouillard  Fortes neiges  Fortes précipitations  Vent > 20 kt
SIGMETs :   Divers  Orages  Givrage  Turbulence  Onde Orograph.  Cendres Volcan.






- Altitude de l'aérodrome : 1585 ft
- Code IATA : SIR


LSGS - Sion

DERNIER METAR :
  • 072120Z AUTO VRB02KT CAVOK 03/01 Q1022

METARs EXPIRÉS :
  • 072050Z AUTO 08002KT CAVOK 04/01 Q1022
  • 072020Z AUTO 07005KT CAVOK 03/01 Q1022
  • 071950Z AUTO 05004KT 030V100 CAVOK 04/02 Q1022
  • 071920Z AUTO 09004KT 070V130 CAVOK 04/01 Q1021
  • 071850Z AUTO VRB01KT CAVOK 05/01 Q1021

TAF TAF LSGS
Valide du 07 à 15h jusqu'au 08 à 00h UTC


071425Z 0715/0724 07003KT CAVOK



MET'MAP, la Météo Aéronautique d'un coup d'oeil ! - Copyright ORBIFLY Décembre 2007 - Disclaimer

ORBIFLY MET'MAP TEAM :

Programmation & Développement : Alexandra Zaïnal
Sur une idée originale de : Baudouin d'Aumeries
Assistance à la programmation : Marc-Olivier Méhu
Soutien technique & logistique : Manuel Goepfert

Contact : metmap@orbifly.com




SOURCES & CREDITS :

   NOAA